sensor_id;sensor_type;location;lat;lon;timestamp;P1;durP1;ratioP1;P2;durP2;ratioP2
71290;SDS011;59073;51.994;4.448;2023-04-19T00:01:47;7.33;;;7.33;;
71290;SDS011;59073;51.994;4.448;2023-04-19T00:04:13;7.40;;;7.40;;
71290;SDS011;59073;51.994;4.448;2023-04-19T00:06:39;7.00;;;6.99;;
71290;SDS011;59073;51.994;4.448;2023-04-19T00:09:05;6.90;;;6.90;;
71290;SDS011;59073;51.994;4.448;2023-04-19T00:11:31;6.95;;;6.95;;
71290;SDS011;59073;51.994;4.448;2023-04-19T00:13:56;7.06;;;7.06;;
71290;SDS011;59073;51.994;4.448;2023-04-19T00:16:22;7.48;;;7.40;;
71290;SDS011;59073;51.994;4.448;2023-04-19T00:18:47;7.17;;;7.14;;
71290;SDS011;59073;51.994;4.448;2023-04-19T00:21:14;7.22;;;7.22;;
71290;SDS011;59073;51.994;4.448;2023-04-19T00:23:39;7.28;;;7.27;;
71290;SDS011;59073;51.994;4.448;2023-04-19T00:26:05;7.05;;;7.05;;
71290;SDS011;59073;51.994;4.448;2023-04-19T00:28:30;7.45;;;7.45;;
71290;SDS011;59073;51.994;4.448;2023-04-19T00:30:56;7.34;;;7.34;;
71290;SDS011;59073;51.994;4.448;2023-04-19T00:33:21;7.41;;;7.34;;
71290;SDS011;59073;51.994;4.448;2023-04-19T00:35:46;7.49;;;7.49;;
71290;SDS011;59073;51.994;4.448;2023-04-19T00:38:12;7.39;;;7.33;;
71290;SDS011;59073;51.994;4.448;2023-04-19T00:40:37;7.41;;;7.37;;
71290;SDS011;59073;51.994;4.448;2023-04-19T00:43:03;7.50;;;7.50;;
71290;SDS011;59073;51.994;4.448;2023-04-19T00:45:28;7.63;;;7.63;;
71290;SDS011;59073;51.994;4.448;2023-04-19T00:47:58;7.44;;;7.44;;
71290;SDS011;59073;51.994;4.448;2023-04-19T00:50:24;7.13;;;7.13;;
71290;SDS011;59073;51.994;4.448;2023-04-19T00:52:50;7.68;;;7.68;;
71290;SDS011;59073;51.994;4.448;2023-04-19T00:55:19;7.35;;;7.35;;
71290;SDS011;59073;51.994;4.448;2023-04-19T00:57:45;7.98;;;7.94;;
71290;SDS011;59073;51.994;4.448;2023-04-19T01:00:12;8.04;;;8.04;;
71290;SDS011;59073;51.994;4.448;2023-04-19T01:02:37;7.89;;;7.89;;
71290;SDS011;59073;51.994;4.448;2023-04-19T01:05:03;8.34;;;8.34;;
71290;SDS011;59073;51.994;4.448;2023-04-19T01:07:29;7.70;;;7.70;;
71290;SDS011;59073;51.994;4.448;2023-04-19T01:09:54;7.86;;;7.77;;
71290;SDS011;59073;51.994;4.448;2023-04-19T01:12:19;7.23;;;7.16;;
71290;SDS011;59073;51.994;4.448;2023-04-19T01:14:45;7.58;;;7.45;;
71290;SDS011;59073;51.994;4.448;2023-04-19T01:17:11;8.15;;;8.14;;
71290;SDS011;59073;51.994;4.448;2023-04-19T01:19:39;8.02;;;8.01;;
71290;SDS011;59073;51.994;4.448;2023-04-19T01:22:06;7.96;;;7.96;;
71290;SDS011;59073;51.994;4.448;2023-04-19T01:24:33;8.63;;;8.62;;
71290;SDS011;59073;51.994;4.448;2023-04-19T01:26:58;8.56;;;8.55;;
71290;SDS011;59073;51.994;4.448;2023-04-19T01:29:24;8.32;;;8.32;;
71290;SDS011;59073;51.994;4.448;2023-04-19T01:31:49;8.46;;;8.45;;
71290;SDS011;59073;51.994;4.448;2023-04-19T01:34:20;8.47;;;8.47;;
71290;SDS011;59073;51.994;4.448;2023-04-19T01:36:47;8.38;;;8.38;;
71290;SDS011;59073;51.994;4.448;2023-04-19T01:39:13;9.31;;;9.18;;
71290;SDS011;59073;51.994;4.448;2023-04-19T01:41:38;8.93;;;8.89;;
71290;SDS011;59073;51.994;4.448;2023-04-19T01:44:03;8.39;;;8.37;;
71290;SDS011;59073;51.994;4.448;2023-04-19T01:46:29;8.14;;;8.14;;
71290;SDS011;59073;51.994;4.448;2023-04-19T01:48:54;7.91;;;7.90;;
71290;SDS011;59073;51.994;4.448;2023-04-19T01:51:20;8.26;;;8.24;;
71290;SDS011;59073;51.994;4.448;2023-04-19T01:53:48;8.19;;;8.19;;
71290;SDS011;59073;51.994;4.448;2023-04-19T01:56:18;8.06;;;8.02;;
71290;SDS011;59073;51.994;4.448;2023-04-19T01:58:43;8.13;;;8.05;;
71290;SDS011;59073;51.994;4.448;2023-04-19T02:01:09;8.07;;;8.03;;
71290;SDS011;59073;51.994;4.448;2023-04-19T02:03:37;8.17;;;8.11;;
71290;SDS011;59073;51.994;4.448;2023-04-19T02:06:03;7.93;;;7.93;;
71290;SDS011;59073;51.994;4.448;2023-04-19T02:08:28;8.20;;;8.01;;
71290;SDS011;59073;51.994;4.448;2023-04-19T02:10:53;8.21;;;8.03;;
71290;SDS011;59073;51.994;4.448;2023-04-19T02:13:19;8.37;;;8.37;;
71290;SDS011;59073;51.994;4.448;2023-04-19T02:15:44;8.04;;;8.02;;
71290;SDS011;59073;51.994;4.448;2023-04-19T02:18:10;8.61;;;8.60;;
71290;SDS011;59073;51.994;4.448;2023-04-19T02:20:35;8.57;;;8.56;;
71290;SDS011;59073;51.994;4.448;2023-04-19T02:23:01;8.94;;;8.91;;
71290;SDS011;59073;51.994;4.448;2023-04-19T02:25:26;8.63;;;8.63;;
71290;SDS011;59073;51.994;4.448;2023-04-19T02:27:52;8.21;;;8.21;;
71290;SDS011;59073;51.994;4.448;2023-04-19T02:30:17;8.48;;;8.48;;
71290;SDS011;59073;51.994;4.448;2023-04-19T02:32:43;8.35;;;8.35;;
71290;SDS011;59073;51.994;4.448;2023-04-19T02:35:08;9.00;;;8.99;;
71290;SDS011;59073;51.994;4.448;2023-04-19T02:37:34;8.89;;;8.89;;
71290;SDS011;59073;51.994;4.448;2023-04-19T02:39:59;8.59;;;8.59;;
71290;SDS011;59073;51.994;4.448;2023-04-19T02:42:25;8.82;;;8.77;;
71290;SDS011;59073;51.994;4.448;2023-04-19T02:44:50;8.78;;;8.76;;
71290;SDS011;59073;51.994;4.448;2023-04-19T02:47:15;9.41;;;9.41;;
71290;SDS011;59073;51.994;4.448;2023-04-19T02:49:41;9.31;;;9.29;;
71290;SDS011;59073;51.994;4.448;2023-04-19T02:52:06;9.15;;;9.10;;
71290;SDS011;59073;51.994;4.448;2023-04-19T02:54:32;9.33;;;9.28;;
71290;SDS011;59073;51.994;4.448;2023-04-19T02:56:58;9.64;;;9.58;;
71290;SDS011;59073;51.994;4.448;2023-04-19T02:59:25;9.38;;;9.28;;
71290;SDS011;59073;51.994;4.448;2023-04-19T03:01:50;10.00;;;9.83;;
71290;SDS011;59073;51.994;4.448;2023-04-19T03:04:16;9.39;;;9.39;;
71290;SDS011;59073;51.994;4.448;2023-04-19T03:06:41;9.07;;;9.04;;
71290;SDS011;59073;51.994;4.448;2023-04-19T03:09:08;8.83;;;8.83;;
71290;SDS011;59073;51.994;4.448;2023-04-19T03:11:34;9.40;;;9.40;;
71290;SDS011;59073;51.994;4.448;2023-04-19T03:14:01;9.05;;;9.05;;
71290;SDS011;59073;51.994;4.448;2023-04-19T03:16:26;9.62;;;9.59;;
71290;SDS011;59073;51.994;4.448;2023-04-19T03:18:54;9.88;;;9.83;;
71290;SDS011;59073;51.994;4.448;2023-04-19T03:21:20;10.06;;;9.96;;
71290;SDS011;59073;51.994;4.448;2023-04-19T03:23:45;10.06;;;10.01;;
71290;SDS011;59073;51.994;4.448;2023-04-19T03:26:11;9.51;;;9.46;;
71290;SDS011;59073;51.994;4.448;2023-04-19T03:28:36;9.60;;;9.57;;
71290;SDS011;59073;51.994;4.448;2023-04-19T03:31:02;9.06;;;9.06;;
71290;SDS011;59073;51.994;4.448;2023-04-19T03:33:27;9.62;;;9.60;;
71290;SDS011;59073;51.994;4.448;2023-04-19T03:35:52;9.17;;;9.16;;
71290;SDS011;59073;51.994;4.448;2023-04-19T03:38:18;9.46;;;9.46;;
71290;SDS011;59073;51.994;4.448;2023-04-19T03:40:43;9.48;;;9.48;;
71290;SDS011;59073;51.994;4.448;2023-04-19T03:43:09;9.44;;;9.44;;
71290;SDS011;59073;51.994;4.448;2023-04-19T03:45:34;9.17;;;9.16;;
71290;SDS011;59073;51.994;4.448;2023-04-19T03:47:59;9.14;;;9.14;;
71290;SDS011;59073;51.994;4.448;2023-04-19T03:50:25;9.74;;;9.74;;
71290;SDS011;59073;51.994;4.448;2023-04-19T03:52:50;9.63;;;9.61;;
71290;SDS011;59073;51.994;4.448;2023-04-19T03:55:16;9.97;;;9.94;;
71290;SDS011;59073;51.994;4.448;2023-04-19T03:57:41;9.16;;;9.16;;
71290;SDS011;59073;51.994;4.448;2023-04-19T04:00:07;9.31;;;9.31;;
71290;SDS011;59073;51.994;4.448;2023-04-19T04:02:33;9.59;;;9.58;;
71290;SDS011;59073;51.994;4.448;2023-04-19T04:05:02;9.44;;;9.37;;
71290;SDS011;59073;51.994;4.448;2023-04-19T04:07:28;9.58;;;9.45;;
71290;SDS011;59073;51.994;4.448;2023-04-19T04:09:53;9.66;;;9.66;;
71290;SDS011;59073;51.994;4.448;2023-04-19T04:12:19;9.47;;;9.45;;
71290;SDS011;59073;51.994;4.448;2023-04-19T04:14:44;9.33;;;9.33;;
71290;SDS011;59073;51.994;4.448;2023-04-19T04:17:10;9.58;;;9.58;;
71290;SDS011;59073;51.994;4.448;2023-04-19T04:19:35;9.23;;;9.23;;
71290;SDS011;59073;51.994;4.448;2023-04-19T04:22:00;9.61;;;9.61;;
71290;SDS011;59073;51.994;4.448;2023-04-19T04:24:27;9.18;;;9.18;;
71290;SDS011;59073;51.994;4.448;2023-04-19T04:26:55;9.24;;;9.24;;
71290;SDS011;59073;51.994;4.448;2023-04-19T04:29:22;9.52;;;9.47;;
71290;SDS011;59073;51.994;4.448;2023-04-19T04:31:47;9.00;;;9.00;;
71290;SDS011;59073;51.994;4.448;2023-04-19T04:34:12;8.93;;;8.93;;
71290;SDS011;59073;51.994;4.448;2023-04-19T04:36:38;9.21;;;9.21;;
71290;SDS011;59073;51.994;4.448;2023-04-19T04:39:03;8.80;;;8.76;;
71290;SDS011;59073;51.994;4.448;2023-04-19T04:41:30;8.92;;;8.90;;
71290;SDS011;59073;51.994;4.448;2023-04-19T04:43:56;9.25;;;9.25;;
71290;SDS011;59073;51.994;4.448;2023-04-19T04:46:22;8.67;;;8.65;;
71290;SDS011;59073;51.994;4.448;2023-04-19T04:48:48;9.29;;;9.17;;
71290;SDS011;59073;51.994;4.448;2023-04-19T04:51:13;9.26;;;9.15;;
71290;SDS011;59073;51.994;4.448;2023-04-19T04:53:39;8.61;;;8.49;;
71290;SDS011;59073;51.994;4.448;2023-04-19T04:56:04;8.86;;;8.81;;
71290;SDS011;59073;51.994;4.448;2023-04-19T04:58:30;8.57;;;8.54;;
71290;SDS011;59073;51.994;4.448;2023-04-19T05:00:55;8.55;;;8.52;;
71290;SDS011;59073;51.994;4.448;2023-04-19T05:03:21;8.26;;;8.26;;
71290;SDS011;59073;51.994;4.448;2023-04-19T05:05:46;7.92;;;7.92;;
71290;SDS011;59073;51.994;4.448;2023-04-19T05:08:11;8.04;;;8.04;;
71290;SDS011;59073;51.994;4.448;2023-04-19T05:10:37;8.50;;;8.46;;
71290;SDS011;59073;51.994;4.448;2023-04-19T05:13:02;8.00;;;8.00;;
71290;SDS011;59073;51.994;4.448;2023-04-19T05:15:28;8.09;;;8.09;;
71290;SDS011;59073;51.994;4.448;2023-04-19T05:17:53;7.57;;;7.55;;
71290;SDS011;59073;51.994;4.448;2023-04-19T05:20:19;8.24;;;8.16;;
71290;SDS011;59073;51.994;4.448;2023-04-19T05:22:45;7.45;;;7.45;;
71290;SDS011;59073;51.994;4.448;2023-04-19T05:25:10;7.84;;;7.84;;
71290;SDS011;59073;51.994;4.448;2023-04-19T05:27:36;7.43;;;7.43;;
71290;SDS011;59073;51.994;4.448;2023-04-19T05:30:02;7.52;;;7.51;;
71290;SDS011;59073;51.994;4.448;2023-04-19T05:32:29;7.29;;;7.26;;
71290;SDS011;59073;51.994;4.448;2023-04-19T05:34:55;7.41;;;7.41;;
71290;SDS011;59073;51.994;4.448;2023-04-19T05:37:20;7.07;;;7.02;;
71290;SDS011;59073;51.994;4.448;2023-04-19T05:39:45;7.62;;;7.62;;
71290;SDS011;59073;51.994;4.448;2023-04-19T05:42:11;7.26;;;7.26;;
71290;SDS011;59073;51.994;4.448;2023-04-19T05:44:36;7.14;;;7.13;;
71290;SDS011;59073;51.994;4.448;2023-04-19T05:47:01;7.42;;;7.39;;
71290;SDS011;59073;51.994;4.448;2023-04-19T05:49:27;6.89;;;6.89;;
71290;SDS011;59073;51.994;4.448;2023-04-19T05:51:52;7.53;;;7.53;;
71290;SDS011;59073;51.994;4.448;2023-04-19T05:54:19;7.19;;;7.19;;
71290;SDS011;59073;51.994;4.448;2023-04-19T05:56:45;6.99;;;6.99;;
71290;SDS011;59073;51.994;4.448;2023-04-19T05:59:10;6.73;;;6.73;;
71290;SDS011;59073;51.994;4.448;2023-04-19T06:01:35;6.60;;;6.60;;
71290;SDS011;59073;51.994;4.448;2023-04-19T06:04:01;6.99;;;6.99;;
71290;SDS011;59073;51.994;4.448;2023-04-19T06:06:26;7.02;;;7.02;;
71290;SDS011;59073;51.994;4.448;2023-04-19T06:08:52;7.46;;;7.46;;
71290;SDS011;59073;51.994;4.448;2023-04-19T06:11:17;7.32;;;7.32;;
71290;SDS011;59073;51.994;4.448;2023-04-19T06:13:43;7.00;;;7.00;;
71290;SDS011;59073;51.994;4.448;2023-04-19T06:16:09;7.08;;;7.08;;
71290;SDS011;59073;51.994;4.448;2023-04-19T06:18:34;6.66;;;6.66;;
71290;SDS011;59073;51.994;4.448;2023-04-19T06:21:00;6.31;;;6.31;;
71290;SDS011;59073;51.994;4.448;2023-04-19T06:23:25;6.58;;;6.58;;
71290;SDS011;59073;51.994;4.448;2023-04-19T06:25:51;6.82;;;6.82;;
71290;SDS011;59073;51.994;4.448;2023-04-19T06:28:17;7.17;;;7.16;;
71290;SDS011;59073;51.994;4.448;2023-04-19T06:30:43;7.02;;;7.00;;
71290;SDS011;59073;51.994;4.448;2023-04-19T06:33:09;7.22;;;7.22;;
71290;SDS011;59073;51.994;4.448;2023-04-19T06:35:35;7.16;;;7.16;;
71290;SDS011;59073;51.994;4.448;2023-04-19T06:38:00;7.18;;;7.18;;
71290;SDS011;59073;51.994;4.448;2023-04-19T06:40:26;7.58;;;7.57;;
71290;SDS011;59073;51.994;4.448;2023-04-19T06:42:53;6.93;;;6.92;;
71290;SDS011;59073;51.994;4.448;2023-04-19T06:45:19;7.01;;;7.01;;
71290;SDS011;59073;51.994;4.448;2023-04-19T06:47:44;6.80;;;6.80;;
71290;SDS011;59073;51.994;4.448;2023-04-19T06:50:09;7.17;;;7.17;;
71290;SDS011;59073;51.994;4.448;2023-04-19T06:52:35;6.79;;;6.79;;
71290;SDS011;59073;51.994;4.448;2023-04-19T06:55:01;7.06;;;7.06;;
71290;SDS011;59073;51.994;4.448;2023-04-19T06:57:26;6.64;;;6.64;;
71290;SDS011;59073;51.994;4.448;2023-04-19T06:59:53;6.73;;;6.73;;
71290;SDS011;59073;51.994;4.448;2023-04-19T07:02:19;6.78;;;6.78;;
71290;SDS011;59073;51.994;4.448;2023-04-19T07:04:45;6.46;;;6.46;;
71290;SDS011;59073;51.994;4.448;2023-04-19T07:07:11;6.49;;;6.49;;
71290;SDS011;59073;51.994;4.448;2023-04-19T07:09:37;7.02;;;7.02;;
71290;SDS011;59073;51.994;4.448;2023-04-19T07:12:02;6.43;;;6.43;;
71290;SDS011;59073;51.994;4.448;2023-04-19T07:14:27;6.52;;;6.52;;
71290;SDS011;59073;51.994;4.448;2023-04-19T07:16:53;6.85;;;6.85;;
71290;SDS011;59073;51.994;4.448;2023-04-19T07:19:19;6.94;;;6.94;;
71290;SDS011;59073;51.994;4.448;2023-04-19T07:21:45;7.24;;;7.24;;
71290;SDS011;59073;51.994;4.448;2023-04-19T07:24:10;6.79;;;6.79;;
71290;SDS011;59073;51.994;4.448;2023-04-19T07:26:35;6.79;;;6.79;;
71290;SDS011;59073;51.994;4.448;2023-04-19T07:29:01;7.05;;;7.04;;
71290;SDS011;59073;51.994;4.448;2023-04-19T07:31:26;6.44;;;6.44;;
71290;SDS011;59073;51.994;4.448;2023-04-19T07:33:52;6.84;;;6.84;;
71290;SDS011;59073;51.994;4.448;2023-04-19T07:36:18;6.86;;;6.86;;
71290;SDS011;59073;51.994;4.448;2023-04-19T07:38:43;6.71;;;6.70;;
71290;SDS011;59073;51.994;4.448;2023-04-19T07:41:09;6.99;;;6.85;;
71290;SDS011;59073;51.994;4.448;2023-04-19T07:43:35;6.83;;;6.82;;
71290;SDS011;59073;51.994;4.448;2023-04-19T07:46:01;6.64;;;6.64;;
71290;SDS011;59073;51.994;4.448;2023-04-19T07:48:26;6.61;;;6.60;;
71290;SDS011;59073;51.994;4.448;2023-04-19T07:50:52;7.00;;;6.99;;
71290;SDS011;59073;51.994;4.448;2023-04-19T07:53:18;6.54;;;6.54;;
71290;SDS011;59073;51.994;4.448;2023-04-19T07:55:43;6.54;;;6.54;;
71290;SDS011;59073;51.994;4.448;2023-04-19T07:58:12;6.00;;;6.00;;
71290;SDS011;59073;51.994;4.448;2023-04-19T08:00:37;5.99;;;5.99;;
71290;SDS011;59073;51.994;4.448;2023-04-19T08:03:03;5.87;;;5.87;;
71290;SDS011;59073;51.994;4.448;2023-04-19T08:05:28;5.99;;;5.99;;
71290;SDS011;59073;51.994;4.448;2023-04-19T08:07:55;5.66;;;5.66;;
71290;SDS011;59073;51.994;4.448;2023-04-19T08:10:21;5.74;;;5.74;;
71290;SDS011;59073;51.994;4.448;2023-04-19T08:12:47;5.88;;;5.88;;
71290;SDS011;59073;51.994;4.448;2023-04-19T08:15:14;5.90;;;5.90;;
71290;SDS011;59073;51.994;4.448;2023-04-19T08:17:40;6.13;;;6.13;;
71290;SDS011;59073;51.994;4.448;2023-04-19T08:20:08;6.06;;;6.06;;
71290;SDS011;59073;51.994;4.448;2023-04-19T08:22:35;6.15;;;6.15;;
71290;SDS011;59073;51.994;4.448;2023-04-19T08:25:00;5.88;;;5.88;;
71290;SDS011;59073;51.994;4.448;2023-04-19T08:27:25;5.91;;;5.91;;
71290;SDS011;59073;51.994;4.448;2023-04-19T08:29:51;5.36;;;5.36;;
71290;SDS011;59073;51.994;4.448;2023-04-19T08:32:16;5.67;;;5.67;;
71290;SDS011;59073;51.994;4.448;2023-04-19T08:34:42;5.62;;;5.62;;
71290;SDS011;59073;51.994;4.448;2023-04-19T08:37:07;5.68;;;5.68;;
71290;SDS011;59073;51.994;4.448;2023-04-19T08:39:33;5.65;;;5.65;;
71290;SDS011;59073;51.994;4.448;2023-04-19T08:42:08;5.43;;;5.43;;
71290;SDS011;59073;51.994;4.448;2023-04-19T08:44:35;5.49;;;5.49;;
71290;SDS011;59073;51.994;4.448;2023-04-19T08:47:04;5.53;;;5.53;;
71290;SDS011;59073;51.994;4.448;2023-04-19T08:49:30;5.55;;;5.55;;
71290;SDS011;59073;51.994;4.448;2023-04-19T08:52:00;5.14;;;5.14;;
71290;SDS011;59073;51.994;4.448;2023-04-19T08:54:29;5.14;;;5.14;;
71290;SDS011;59073;51.994;4.448;2023-04-19T08:56:57;4.91;;;4.91;;
71290;SDS011;59073;51.994;4.448;2023-04-19T08:59:24;4.99;;;4.99;;
71290;SDS011;59073;51.994;4.448;2023-04-19T09:01:49;4.33;;;4.33;;
71290;SDS011;59073;51.994;4.448;2023-04-19T09:04:15;4.29;;;4.29;;
71290;SDS011;59073;51.994;4.448;2023-04-19T09:06:40;4.17;;;4.17;;
71290;SDS011;59073;51.994;4.448;2023-04-19T09:12:01;3.92;;;3.92;;
71290;SDS011;59073;51.994;4.448;2023-04-19T09:14:26;3.95;;;3.95;;
71290;SDS011;59073;51.994;4.448;2023-04-19T09:16:53;3.84;;;3.84;;
71290;SDS011;59073;51.994;4.448;2023-04-19T09:19:19;3.62;;;3.62;;
71290;SDS011;59073;51.994;4.448;2023-04-19T09:21:45;3.61;;;3.61;;
71290;SDS011;59073;51.994;4.448;2023-04-19T09:24:10;3.77;;;3.77;;
71290;SDS011;59073;51.994;4.448;2023-04-19T09:26:36;3.48;;;3.48;;
71290;SDS011;59073;51.994;4.448;2023-04-19T09:29:03;3.57;;;3.57;;
71290;SDS011;59073;51.994;4.448;2023-04-19T09:31:35;3.25;;;3.25;;
71290;SDS011;59073;51.994;4.448;2023-04-19T09:34:11;3.53;;;3.53;;
71290;SDS011;59073;51.994;4.448;2023-04-19T09:36:38;3.81;;;3.81;;
71290;SDS011;59073;51.994;4.448;2023-04-19T09:39:04;3.45;;;3.45;;
71290;SDS011;59073;51.994;4.448;2023-04-19T09:41:30;3.53;;;3.51;;
71290;SDS011;59073;51.994;4.448;2023-04-19T09:44:10;3.50;;;3.45;;
71290;SDS011;59073;51.994;4.448;2023-04-19T09:46:37;3.68;;;3.63;;
71290;SDS011;59073;51.994;4.448;2023-04-19T09:49:14;3.29;;;3.29;;
71290;SDS011;59073;51.994;4.448;2023-04-19T09:51:47;3.06;;;3.06;;
71290;SDS011;59073;51.994;4.448;2023-04-19T09:54:18;3.34;;;3.34;;
71290;SDS011;59073;51.994;4.448;2023-04-19T09:56:45;3.57;;;3.57;;
71290;SDS011;59073;51.994;4.448;2023-04-19T09:59:12;3.20;;;3.20;;
71290;SDS011;59073;51.994;4.448;2023-04-19T10:01:58;3.00;;;2.96;;
71290;SDS011;59073;51.994;4.448;2023-04-19T10:04:24;3.07;;;3.05;;
71290;SDS011;59073;51.994;4.448;2023-04-19T10:06:51;2.82;;;2.80;;
71290;SDS011;59073;51.994;4.448;2023-04-19T10:09:18;2.92;;;2.92;;
71290;SDS011;59073;51.994;4.448;2023-04-19T10:11:49;3.12;;;3.12;;
71290;SDS011;59073;51.994;4.448;2023-04-19T10:14:18;3.06;;;3.06;;
71290;SDS011;59073;51.994;4.448;2023-04-19T10:16:48;2.84;;;2.84;;
71290;SDS011;59073;51.994;4.448;2023-04-19T10:19:15;2.91;;;2.91;;
71290;SDS011;59073;51.994;4.448;2023-04-19T10:21:43;2.57;;;2.57;;
71290;SDS011;59073;51.994;4.448;2023-04-19T10:24:11;2.64;;;2.64;;
71290;SDS011;59073;51.994;4.448;2023-04-19T10:29:54;2.36;;;2.36;;
71290;SDS011;59073;51.994;4.448;2023-04-19T10:32:43;2.36;;;2.36;;
71290;SDS011;59073;51.994;4.448;2023-04-19T10:35:17;2.29;;;2.29;;
71290;SDS011;59073;51.994;4.448;2023-04-19T10:38:00;2.50;;;2.50;;
71290;SDS011;59073;51.994;4.448;2023-04-19T10:46:02;2.01;;;2.01;;
71290;SDS011;59073;51.994;4.448;2023-04-19T10:48:30;1.76;;;1.76;;
71290;SDS011;59073;51.994;4.448;2023-04-19T10:53:50;2.03;;;2.03;;
71290;SDS011;59073;51.994;4.448;2023-04-19T11:04:05;1.79;;;1.75;;
71290;SDS011;59073;51.994;4.448;2023-04-19T11:06:32;1.74;;;1.71;;
71290;SDS011;59073;51.994;4.448;2023-04-19T11:08:58;1.90;;;1.89;;
71290;SDS011;59073;51.994;4.448;2023-04-19T11:11:25;1.72;;;1.72;;
71290;SDS011;59073;51.994;4.448;2023-04-19T11:13:52;2.10;;;2.10;;
71290;SDS011;59073;51.994;4.448;2023-04-19T11:16:20;1.86;;;1.86;;
71290;SDS011;59073;51.994;4.448;2023-04-19T11:18:46;1.81;;;1.81;;
71290;SDS011;59073;51.994;4.448;2023-04-19T11:21:12;1.66;;;1.65;;
71290;SDS011;59073;51.994;4.448;2023-04-19T11:23:38;1.99;;;1.99;;
71290;SDS011;59073;51.994;4.448;2023-04-19T11:26:05;2.22;;;2.22;;
71290;SDS011;59073;51.994;4.448;2023-04-19T11:28:34;1.77;;;1.77;;
71290;SDS011;59073;51.994;4.448;2023-04-19T11:30:59;2.04;;;2.04;;
71290;SDS011;59073;51.994;4.448;2023-04-19T11:33:25;2.04;;;2.04;;
71290;SDS011;59073;51.994;4.448;2023-04-19T11:35:52;1.96;;;1.96;;
71290;SDS011;59073;51.994;4.448;2023-04-19T11:38:18;1.75;;;1.75;;
71290;SDS011;59073;51.994;4.448;2023-04-19T11:40:43;2.09;;;2.09;;
71290;SDS011;59073;51.994;4.448;2023-04-19T11:43:08;2.04;;;2.04;;
71290;SDS011;59073;51.994;4.448;2023-04-19T11:45:35;1.70;;;1.70;;
71290;SDS011;59073;51.994;4.448;2023-04-19T11:48:05;1.70;;;1.70;;
71290;SDS011;59073;51.994;4.448;2023-04-19T11:50:36;1.71;;;1.71;;
71290;SDS011;59073;51.994;4.448;2023-04-19T11:53:10;1.76;;;1.76;;
71290;SDS011;59073;51.994;4.448;2023-04-19T11:55:48;1.57;;;1.57;;
71290;SDS011;59073;51.994;4.448;2023-04-19T11:58:38;1.75;;;1.75;;
71290;SDS011;59073;51.994;4.448;2023-04-19T12:01:09;1.60;;;1.59;;
71290;SDS011;59073;51.994;4.448;2023-04-19T12:03:53;1.76;;;1.75;;
71290;SDS011;59073;51.994;4.448;2023-04-19T12:06:28;1.85;;;1.85;;
71290;SDS011;59073;51.994;4.448;2023-04-19T12:08:56;1.42;;;1.42;;
71290;SDS011;59073;51.994;4.448;2023-04-19T12:11:22;1.56;;;1.56;;
71290;SDS011;59073;51.994;4.448;2023-04-19T12:14:09;1.62;;;1.62;;
71290;SDS011;59073;51.994;4.448;2023-04-19T12:16:36;1.66;;;1.66;;
71290;SDS011;59073;51.994;4.448;2023-04-19T12:19:15;1.66;;;1.66;;
71290;SDS011;59073;51.994;4.448;2023-04-19T12:21:43;1.67;;;1.67;;
71290;SDS011;59073;51.994;4.448;2023-04-19T12:24:09;1.84;;;1.84;;
71290;SDS011;59073;51.994;4.448;2023-04-19T12:26:36;1.82;;;1.82;;
71290;SDS011;59073;51.994;4.448;2023-04-19T12:29:17;1.90;;;1.90;;
71290;SDS011;59073;51.994;4.448;2023-04-19T12:31:42;1.52;;;1.50;;
71290;SDS011;59073;51.994;4.448;2023-04-19T12:34:08;1.86;;;1.84;;
71290;SDS011;59073;51.994;4.448;2023-04-19T12:36:33;1.89;;;1.87;;
71290;SDS011;59073;51.994;4.448;2023-04-19T12:38:59;1.81;;;1.79;;
71290;SDS011;59073;51.994;4.448;2023-04-19T12:41:24;1.96;;;1.95;;
71290;SDS011;59073;51.994;4.448;2023-04-19T12:43:50;2.01;;;2.00;;
71290;SDS011;59073;51.994;4.448;2023-04-19T12:46:15;2.01;;;2.00;;
71290;SDS011;59073;51.994;4.448;2023-04-19T12:48:40;1.79;;;1.79;;
71290;SDS011;59073;51.994;4.448;2023-04-19T12:51:06;1.67;;;1.67;;
71290;SDS011;59073;51.994;4.448;2023-04-19T12:53:31;2.03;;;2.03;;
71290;SDS011;59073;51.994;4.448;2023-04-19T12:55:57;1.85;;;1.85;;
71290;SDS011;59073;51.994;4.448;2023-04-19T12:58:22;1.98;;;1.98;;
71290;SDS011;59073;51.994;4.448;2023-04-19T13:00:47;1.90;;;1.90;;
71290;SDS011;59073;51.994;4.448;2023-04-19T13:03:13;1.96;;;1.96;;
71290;SDS011;59073;51.994;4.448;2023-04-19T13:05:38;2.32;;;2.32;;
71290;SDS011;59073;51.994;4.448;2023-04-19T13:08:04;2.00;;;2.00;;
71290;SDS011;59073;51.994;4.448;2023-04-19T13:10:30;2.03;;;2.03;;
71290;SDS011;59073;51.994;4.448;2023-04-19T13:12:55;2.27;;;2.27;;
71290;SDS011;59073;51.994;4.448;2023-04-19T13:15:23;2.31;;;2.31;;
71290;SDS011;59073;51.994;4.448;2023-04-19T13:17:48;2.23;;;2.23;;
71290;SDS011;59073;51.994;4.448;2023-04-19T13:20:14;1.91;;;1.91;;
71290;SDS011;59073;51.994;4.448;2023-04-19T13:22:39;2.26;;;2.26;;
71290;SDS011;59073;51.994;4.448;2023-04-19T13:25:05;2.29;;;2.29;;
71290;SDS011;59073;51.994;4.448;2023-04-19T13:27:30;2.27;;;2.27;;
71290;SDS011;59073;51.994;4.448;2023-04-19T13:29:56;2.10;;;2.10;;
71290;SDS011;59073;51.994;4.448;2023-04-19T13:32:21;2.42;;;2.42;;
71290;SDS011;59073;51.994;4.448;2023-04-19T13:34:47;2.40;;;2.40;;
71290;SDS011;59073;51.994;4.448;2023-04-19T13:37:13;2.63;;;2.63;;
71290;SDS011;59073;51.994;4.448;2023-04-19T13:39:38;2.65;;;2.65;;
71290;SDS011;59073;51.994;4.448;2023-04-19T13:42:04;2.75;;;2.75;;
71290;SDS011;59073;51.994;4.448;2023-04-19T13:44:30;2.82;;;2.82;;
71290;SDS011;59073;51.994;4.448;2023-04-19T13:46:56;2.67;;;2.67;;
71290;SDS011;59073;51.994;4.448;2023-04-19T13:49:21;2.66;;;2.66;;
71290;SDS011;59073;51.994;4.448;2023-04-19T13:51:47;2.80;;;2.80;;
71290;SDS011;59073;51.994;4.448;2023-04-19T13:54:12;2.94;;;2.94;;
71290;SDS011;59073;51.994;4.448;2023-04-19T13:56:38;2.69;;;2.69;;
71290;SDS011;59073;51.994;4.448;2023-04-19T13:59:04;3.01;;;3.01;;
71290;SDS011;59073;51.994;4.448;2023-04-19T14:01:29;3.01;;;3.01;;
71290;SDS011;59073;51.994;4.448;2023-04-19T14:03:54;3.00;;;3.00;;
71290;SDS011;59073;51.994;4.448;2023-04-19T14:06:20;3.26;;;3.25;;
71290;SDS011;59073;51.994;4.448;2023-04-19T14:08:45;2.75;;;2.75;;
71290;SDS011;59073;51.994;4.448;2023-04-19T14:11:11;2.91;;;2.91;;
71290;SDS011;59073;51.994;4.448;2023-04-19T14:13:36;3.12;;;3.12;;
71290;SDS011;59073;51.994;4.448;2023-04-19T14:16:02;3.09;;;3.09;;
71290;SDS011;59073;51.994;4.448;2023-04-19T14:18:28;2.76;;;2.76;;
71290;SDS011;59073;51.994;4.448;2023-04-19T14:20:53;3.16;;;3.16;;
71290;SDS011;59073;51.994;4.448;2023-04-19T14:23:19;3.07;;;3.07;;
71290;SDS011;59073;51.994;4.448;2023-04-19T14:25:44;3.53;;;3.51;;
71290;SDS011;59073;51.994;4.448;2023-04-19T14:28:10;3.12;;;3.08;;
71290;SDS011;59073;51.994;4.448;2023-04-19T14:30:37;3.03;;;3.01;;
71290;SDS011;59073;51.994;4.448;2023-04-19T14:33:03;2.86;;;2.85;;
71290;SDS011;59073;51.994;4.448;2023-04-19T14:35:29;2.95;;;2.95;;
71290;SDS011;59073;51.994;4.448;2023-04-19T14:37:54;2.75;;;2.75;;
71290;SDS011;59073;51.994;4.448;2023-04-19T14:40:20;2.61;;;2.60;;
71290;SDS011;59073;51.994;4.448;2023-04-19T14:42:46;2.75;;;2.75;;
71290;SDS011;59073;51.994;4.448;2023-04-19T14:45:12;2.43;;;2.43;;
71290;SDS011;59073;51.994;4.448;2023-04-19T14:47:37;2.69;;;2.69;;
71290;SDS011;59073;51.994;4.448;2023-04-19T14:50:03;2.56;;;2.56;;
71290;SDS011;59073;51.994;4.448;2023-04-19T14:52:29;2.69;;;2.68;;
71290;SDS011;59073;51.994;4.448;2023-04-19T14:54:55;2.84;;;2.82;;
71290;SDS011;59073;51.994;4.448;2023-04-19T14:57:21;2.66;;;2.64;;
71290;SDS011;59073;51.994;4.448;2023-04-19T14:59:47;2.71;;;2.69;;
71290;SDS011;59073;51.994;4.448;2023-04-19T15:02:12;2.76;;;2.75;;
71290;SDS011;59073;51.994;4.448;2023-04-19T15:04:38;2.68;;;2.67;;
71290;SDS011;59073;51.994;4.448;2023-04-19T15:07:03;2.90;;;2.90;;